Have a Safe July 4th! 

Flight Track Log - Related Links

Times and Time Zones

All times are in EDT time to prevent confusion due to time zone crossing. See the THY2 flight status page for this flight to view local times or setup timezone preferences in your user account.

Time Position Orientation Groundspeed Altitude Reporting Facility
EDT Latitude Longitude Course Direction KTS MPH feet Rate Location/Type
Wed 12:39:07 AM 40.6330 -73.7830 123° Southeast 196 226  Level FlightAware ADS-B
Wed 12:39:32 AM 40.6230 -73.7590 119° Southeast 207 238 800 1,950 Climbing FlightAware ADS-B
Wed 12:39:47 AM 40.6190 -73.7380 104° East 215 247 1,300 1,350 Climbing FlightAware ADS-B
Wed 12:40:12 AM 40.6170 -73.7050 95° East 243 280 1,700 1,091 Climbing FlightAware ADS-B
Wed 12:40:42 AM 40.6310 -73.6620 67° East 267 307 2,300 1,467 Climbing FlightAware ADS-B
Wed 12:40:57 AM 40.6440 -73.6430 48° Northeast 271 312 2,800 2,400 Climbing FlightAware ADS-B
Wed 12:41:27 AM 40.6690 -73.6070 48° Northeast 272 313 4,100 2,509 Climbing FlightAware ADS-B
Wed 12:41:52 AM 40.6900 -73.5770 47° Northeast 273 314 5,100 2,291 Climbing FlightAware ADS-B
Wed 12:42:22 AM 40.7160 -73.5400 47° Northeast 276 318 6,200 2,267 Climbing FlightAware ADS-B
Wed 12:42:37 AM 40.7340 -73.5250 32° Northeast 276 318 6,800 2,400 Climbing FlightAware ADS-B
Wed 12:43:02 AM 40.7620 -73.5140 17° North 271 312 7,800 2,291 Climbing FlightAware ADS-B
Wed 12:43:32 AM 40.7980 -73.5040 12° North 271 312 8,900 2,182 Climbing FlightAware ADS-B
Wed 12:43:57 AM 40.8320 -73.4940 13° North 277 319 9,800 1,800 Climbing FlightAware ADS-B
Wed 12:44:42 AM 40.8880 -73.4790 11° North 301 346 11,000 1,443 Climbing FlightAware ADS-B
Wed 12:45:16 AM 40.9416 -73.4646 11° North 335 386 11,700 1,477 Climbing FlightAware ADS-B
Wed 12:45:47 AM 40.9905 -73.4511 12° North 361 415 12,600 2,381 Climbing FlightAware ADS-B
Wed 12:46:19 AM 41.0441 -73.4361 12° North 366 421 14,200 2,857 Climbing FlightAware ADS-B
Wed 12:46:50 AM 41.0953 -73.4217 12° North 373 429 15,600 2,656 Climbing FlightAware ADS-B
Wed 12:47:20 AM 41.1471 -73.4073 12° North 377 434 16,900 2,800 Climbing FlightAware ADS-B
Wed 12:47:50 AM 41.1988 -73.3930 12° North 378 435 18,400 3,148 Climbing FlightAware ADS-B
Wed 12:48:21 AM 41.2501 -73.3785 12° North 367 422 20,100 2,754 Climbing FlightAware ADS-B
Wed 12:48:51 AM 41.3011 -73.3642 12° North 373 429 21,200 2,154 Climbing FlightAware ADS-B
Wed 12:49:00 AM 41.3149 -73.3608 10° North 370 426 21,500 2,154 Climbing FlightAware ADS-B
Wed 12:49:30 AM 41.3662 -73.3566 North 369 425 22,600 2,000 Climbing FlightAware ADS-B
Wed 12:50:00 AM 41.4187 -73.3530 North 378 435 23,500 1,900 Climbing FlightAware ADS-B
Wed 12:50:30 AM 41.4717 -73.3475 North 383 441 24,500 1,915 Climbing FlightAware ADS-B
Wed 12:50:47 AM 41.5018 -73.3442 North 385 443 25,000 1,787 Climbing FlightAware ADS-B
Wed 12:51:17 AM 41.5557 -73.3404 North 388 447 25,900 1,672 Climbing FlightAware ADS-B
Wed 12:51:48 AM 41.6103 -73.3369 North 394 453 26,700 1,574 Climbing FlightAware ADS-B
Wed 12:52:18 AM 41.6656 -73.3330 North 399 459 27,500 1,600 Climbing FlightAware ADS-B
Wed 12:52:48 AM 41.7218 -73.3292 North 403 464 28,300 1,600 Climbing FlightAware ADS-B
Wed 12:53:18 AM 41.7778 -73.3253 North 405 466 29,100 1,672 Climbing FlightAware ADS-B
Wed 12:53:49 AM 41.8356 -73.3214 North 406 467 30,000 1,475 Climbing FlightAware ADS-B
Wed 12:54:19 AM 41.8926 -73.3174 North 409 471 30,600 1,412 Climbing FlightAware ADS-B
Wed 12:54:57 AM 41.9645 -73.3125 North 410 472 31,600 1,484 Climbing FlightAware ADS-B
Wed 12:55:52 AM 42.0650 -73.3060 North 406 467 32,900 840 Climbing FlightAware ADS-B
Wed 12:56:37 AM 42.1450 -73.3000 North 404 465 33,000 71 Climbing FlightAware ADS-B
Wed 12:57:17 AM 42.2200 -73.2770 13° North 420 483 33,000  Level FlightAware ADS-B
Wed 12:57:57 AM 42.2860 -73.2250 30° Northeast 443 510 33,000  Level FlightAware ADS-B
Wed 12:58:42 AM 42.3540 -73.1510 39° Northeast 443 510 33,000  Level FlightAware ADS-B
Wed 12:59:22 AM 42.4210 -73.0770 39° Northeast 444 511 33,000  Level FlightAware ADS-B
Wed 01:00:07 AM 42.4990 -72.9980 37° Northeast 438 504 33,000  Level FlightAware ADS-B
Wed 01:00:47 AM 42.5670 -72.9340 35° Northeast 437 503 33,000  Level FlightAware ADS-B
Wed 01:01:27 AM 42.6310 -72.8750 34° Northeast 439 505 33,000  Level FlightAware ADS-B
Wed 01:02:12 AM 42.7070 -72.8040 34° Northeast 440 506 33,000  Level FlightAware ADS-B
Wed 01:02:52 AM 42.7750 -72.7400 35° Northeast 441 507 33,000  Level FlightAware ADS-B
Wed 01:03:37 AM 42.8510 -72.6690 34° Northeast 439 505 33,000  Level FlightAware ADS-B
Wed 01:04:17 AM 42.9190 -72.6040 35° Northeast 438 504 33,000  Level FlightAware ADS-B
Wed 01:04:57 AM 42.9850 -72.5410 35° Northeast 438 504 33,000  Level FlightAware ADS-B
Wed 01:05:42 AM 43.0580 -72.4720 35° Northeast 438 504 33,000  Level FlightAware ADS-B
Wed 01:06:22 AM 43.1240 -72.4090 35° Northeast 436 502 33,000  Level FlightAware ADS-B
Wed 01:07:07 AM 43.2000 -72.3360 35° Northeast 437 503 33,000  Level FlightAware ADS-B
Wed 01:07:47 AM 43.2670 -72.2720 35° Northeast 438 504 33,000  Level FlightAware ADS-B
Wed 01:08:27 AM 43.3340 -72.2080 35° Northeast 441 507 33,000  Level FlightAware ADS-B
Wed 01:09:12 AM 43.4090 -72.1360 35° Northeast 445 512 33,000  Level FlightAware ADS-B
Wed 01:09:52 AM 43.4740 -72.0720 36° Northeast 446 513 33,000  Level FlightAware ADS-B
Wed 01:10:37 AM 43.5530 -71.9960 35° Northeast 448 516 33,000  Level FlightAware ADS-B
Wed 01:11:17 AM 43.6200 -71.9300 35° Northeast 451 519 33,000  Level FlightAware ADS-B
Wed 01:11:57 AM 43.6900 -71.8630 35° Northeast 456 525 33,000  Level FlightAware ADS-B
Wed 01:12:37 AM 43.7580 -71.7960 35° Northeast 459 528 33,000  Level FlightAware ADS-B
Wed 01:13:22 AM 43.8350 -71.7200 35° Northeast 459 528 33,000  Level FlightAware ADS-B
Wed 01:14:02 AM 43.9040 -71.6520 35° Northeast 460 529 33,000  Level FlightAware ADS-B
Wed 01:14:42 AM 43.9730 -71.5840 35° Northeast 460 529 33,000  Level FlightAware ADS-B
Wed 01:15:27 AM 44.0530 -71.5040 36° Northeast 458 527 33,000  Level FlightAware ADS-B
Wed 01:16:07 AM 44.1220 -71.4360 35° Northeast 459 528 33,000  Level FlightAware ADS-B
Wed 01:16:57 AM 44.2070 -71.3520 35° Northeast 456 525 33,000  Level FlightAware ADS-B
Wed 01:17:37 AM 44.2760 -71.2830 36° Northeast 455 524 33,000  Level FlightAware ADS-B
Wed 01:18:17 AM 44.3440 -71.2140 36° Northeast 459 528 33,000  Level FlightAware ADS-B
Wed 01:18:57 AM 44.4140 -71.1440 36° Northeast 459 528 33,000  Level FlightAware ADS-B
Wed 01:19:52 AM 44.5010 -71.0550 36° Northeast 462 532 33,000  Level FlightAware ADS-B
Wed 01:20:37 AM 44.5840 -70.9720 35° Northeast 464 534 33,000  Level FlightAware ADS-B
Wed 01:21:22 AM 44.6620 -70.8920 36° Northeast 466 536 33,000  Level FlightAware ADS-B
Wed 01:21:52 AM 44.7100 -70.8430 36° Northeast 466 536 33,000  Level FlightAware ADS-B
Wed 01:22:47 AM 44.8110 -70.7400 36° Northeast 468 539 33,000  Level FlightAware ADS-B
Wed 01:23:27 AM 44.8810 -70.6680 36° Northeast 468 539 33,000  Level FlightAware ADS-B
Wed 01:24:17 AM 44.9650 -70.5820 36° Northeast 468 539 33,000  Level FlightAware ADS-B
Wed 01:25:07 AM 45.0540 -70.4890 36° Northeast 471 542 33,000  Level FlightAware ADS-B
Wed 01:25:47 AM 45.1230 -70.4180 36° Northeast 474 545 33,000  Level FlightAware ADS-B
Wed 01:26:27 AM 45.1940 -70.3440 36° Northeast 476 548 33,000  Level FlightAware ADS-B
Wed 01:27:12 AM 45.2740 -70.2610 36° Northeast 477 549 33,000  Level FlightAware ADS-B
Wed 01:27:52 AM 45.3450 -70.1860 37° Northeast 477 549 33,000  Level FlightAware ADS-B
Wed 01:28:37 AM 45.4240 -70.1030 36° Northeast 476 548 33,000  Level FlightAware ADS-B
Wed 01:29:17 AM 45.4950 -70.0270 37° Northeast 474 545 33,000  Level FlightAware ADS-B
Wed 01:29:57 AM 45.5640 -69.9540 37° Northeast 475 547 33,000  Level FlightAware ADS-B
Wed 01:30:42 AM 45.6450 -69.8690 36° Northeast 477 549 33,000  Level FlightAware ADS-B
Wed 01:31:22 AM 45.7150 -69.7940 37° Northeast 480 552 33,000  Level FlightAware ADS-B
Wed 01:32:02 AM 45.7870 -69.7170 37° Northeast 483 556 33,000  Level FlightAware ADS-B
Wed 01:32:47 AM 45.8660 -69.6320 37° Northeast 484 557 33,000  Level FlightAware ADS-B
Wed 01:33:27 AM 45.9390 -69.5540 37° Northeast 487 560 33,000  Level FlightAware ADS-B
Wed 01:34:12 AM 46.0190 -69.4670 37° Northeast 489 563 33,000  Level FlightAware ADS-B
Wed 01:34:52 AM 46.0920 -69.3880 37° Northeast 494 568 33,000  Level FlightAware ADS-B
Wed 01:35:37 AM 46.1740 -69.2990 37° Northeast 494 568 33,000  Level FlightAware ADS-B
Wed 01:36:17 AM 46.2460 -69.2200 37° Northeast 494 568 33,000  Level FlightAware ADS-B
Wed 01:36:57 AM 46.3190 -69.1400 37° Northeast 494 568 33,000  Level FlightAware ADS-B
Wed 01:37:42 AM 46.4000 -69.0500 37° Northeast 493 567 33,000  Level FlightAware ADS-B
Wed 01:38:22 AM 46.4720 -68.9710 37° Northeast 493 567 33,000  Level FlightAware ADS-B
Wed 01:39:02 AM 46.5450 -68.8900 37° Northeast 494 568 33,000  Level FlightAware ADS-B
Wed 01:39:47 AM 46.6270 -68.8000 37° Northeast 496 571 33,000  Level FlightAware ADS-B
Wed 01:40:27 AM 46.6980 -68.7190 38° Northeast 497 572 33,000  Level FlightAware ADS-B
Wed 01:41:12 AM 46.7810 -68.6260 37° Northeast 497 572 33,000  Level FlightAware ADS-B
Wed 01:41:52 AM 46.8550 -68.5440 37° Northeast 499 574 33,000  Level FlightAware ADS-B
Wed 01:42:32 AM 46.9290 -68.4600 38° Northeast 501 577 33,000  Level FlightAware ADS-B
Wed 01:43:17 AM 47.0110 -68.3670 38° Northeast 502 578 33,000  Level FlightAware ADS-B
Wed 01:43:57 AM 47.0840 -68.2840 38° Northeast 498 573 33,000  Level FlightAware ADS-B
Wed 01:44:37 AM 47.1470 -68.2120 38° Northeast 498 573 33,000  Level FlightAware ADS-B
Wed 01:45:17 AM 47.2270 -68.1220 37° Northeast 498 573 33,000  Level FlightAware ADS-B
Wed 01:45:32 AM 46.9000 -68.4930 218° Southwest 33,000  Level FlightAware ADS-B
Wed 01:46:27 AM 47.3560 -67.9720 38° Northeast 504 580 33,000  Level FlightAware ADS-B
Wed 01:47:12 AM 47.3650 -67.9620 37° Northeast 504 580 33,000  Level FlightAware ADS-B
Wed 01:47:47 AM 47.4240 -67.8930 38° Northeast 504 580 33,000  Level FlightAware ADS-B
Wed 01:48:37 AM 47.5020 -67.8030 38° Northeast 504 580 33,000  Level FlightAware ADS-B
Wed 01:49:17 AM 47.5650 -67.7310 38° Northeast 504 580 33,000  Level FlightAware ADS-B
Wed 01:49:57 AM 47.6270 -67.6580 38° Northeast 504 580 33,000  Level FlightAware ADS-B
Wed 01:50:37 AM 47.6900 -67.5860 38° Northeast 504 580 33,000  Level FlightAware ADS-B
Wed 01:51:27 AM 47.7680 -67.4950 38° Northeast 504 580 33,000  Level FlightAware ADS-B
Wed 01:52:07 AM 47.8300 -67.4220 38° Northeast 504 580 33,000  Level FlightAware ADS-B
Wed 01:52:47 AM 47.8930 -67.3500 37° Northeast 504 580 33,000  Level FlightAware ADS-B
Wed 01:53:27 AM 47.9550 -67.2770 38° Northeast 504 580 33,000  Level FlightAware ADS-B
Wed 01:54:07 AM 48.0180 -67.2040 38° Northeast 504 580 33,000  Level FlightAware ADS-B
Wed 01:54:47 AM 48.0800 -67.1310 38° Northeast 504 580 33,000  Level FlightAware ADS-B
Wed 01:55:37 AM 48.1580 -67.0390 38° Northeast 504 580 33,000  Level FlightAware ADS-B
Wed 01:56:17 AM 48.2210 -66.9660 38° Northeast 504 580 33,000  Level FlightAware ADS-B
Wed 01:56:57 AM 48.2830 -66.8930 38° Northeast 504 580 33,000  Level FlightAware ADS-B
Wed 01:57:36 AM 48.6500 -66.6000 38° Northeast 520 598 33,000  Level Moncton Center
Wed 01:58:36 AM 48.7667 -66.4833 33° Northeast 520 598 33,000  Level Moncton Center
Wed 01:59:36 AM 48.8833 -66.3333 40° Northeast 520 598 33,000  Level Moncton Center
Wed 02:00:36 AM 49.0000 -66.2167 33° Northeast 520 598 33,000  Level Moncton Center
Wed 02:01:36 AM 49.1333 -66.0833 33° Northeast 520 598 33,000  Level Moncton Center
Wed 02:02:36 AM 49.2500 -65.9667 33° Northeast 520 598 33,000  Level Moncton Center
Wed 02:03:36 AM 49.3667 -65.8167 40° Northeast 530 610 33,000  Level Moncton Center
Wed 02:04:36 AM 49.4833 -65.6833 37° Northeast 530 610 33,000  Level Moncton Center
Wed 02:05:36 AM 49.6000 -65.5667 33° Northeast 530 610 33,000  Level Moncton Center
Wed 02:06:36 AM 49.7167 -65.4333 36° Northeast 530 610 33,000  Level Moncton Center
Wed 02:07:11 AM 49.7833 -65.3500 39° Northeast 540 621 33,000  Level Gander Center
Wed 02:08:11 AM 49.9167 -65.2000 36° Northeast 540 621 33,000  Level Gander Center
Wed 02:09:11 AM 50.0167 -65.0833 37° Northeast 530 610 33,000  Level Gander Center
Wed 02:10:11 AM 50.1500 -64.9333 36° Northeast 530 610 33,000  Level Gander Center
Wed 02:11:11 AM 50.2667 -64.7833 39° Northeast 540 621 33,000  Level Gander Center
Wed 02:12:11 AM 50.3833 -64.6333 39° Northeast 550 633 33,000  Level Gander Center
Wed 02:13:11 AM 50.5167 -64.5167 29° Northeast 550 633 33,000  Level Gander Center
Wed 02:14:11 AM 50.6500 -64.3667 35° Northeast 550 633 33,000  Level Gander Center
Wed 02:14:36 AM 50.7000 -64.2833 47° Northeast 560 644 33,000  Level Moncton Center
Wed 02:15:36 AM 50.8167 -64.1667 32° Northeast 560 644 33,000  Level Moncton Center
Wed 02:16:11 AM 50.8833 -64.0667 43° Northeast 560 644 33,000  Level Gander Center
Wed 02:17:11 AM 51.0167 -63.9167 35° Northeast 560 644 33,000  Level Gander Center
Wed 02:17:36 AM 51.0667 -63.8667 32° Northeast 560 644 33,000  Level Moncton Center
Wed 02:18:11 AM 51.1333 -63.7667 43° Northeast 560 644 33,000  Level Gander Center
Wed 02:19:11 AM 51.2667 -63.6000 38° Northeast 560 644 33,000  Level Gander Center
Wed 02:19:36 AM 51.3167 -63.5333 40° Northeast 560 644 33,000  Level Moncton Center
Wed 02:20:11 AM 51.3833 -63.4500 38° Northeast 560 644 33,000  Level Gander Center
Wed 02:21:11 AM 51.5000 -63.3000 39° Northeast 560 644 33,000  Level Gander Center
Wed 02:21:36 AM 51.5667 -63.2333 32° Northeast 570 656 33,000  Level Moncton Center
Wed 02:22:11 AM 51.6333 -63.1333 43° Northeast 570 656 33,000  Level Gander Center
Wed 02:23:11 AM 51.7667 -62.9833 35° Northeast 570 656 33,000  Level Gander Center
Wed 02:24:11 AM 51.8833 -62.8333 38° Northeast 570 656 33,000  Level Gander Center
Wed 02:25:11 AM 52.0167 -62.6667 38° Northeast 580 667 33,000  Level Gander Center
Wed 02:25:36 AM 52.0667 -62.6000 39° Northeast 580 667 33,000  Level Moncton Center
Wed 02:26:11 AM 52.1333 -62.5000 43° Northeast 580 667 33,000  Level Gander Center
Wed 02:27:11 AM 52.2500 -62.3500 38° Northeast 580 667 33,000  Level Gander Center
Wed 02:28:11 AM 52.3833 -62.1833 37° Northeast 580 667 33,000  Level Gander Center
Wed 02:29:11 AM 52.5167 -62.0167 37° Northeast 590 679 33,000  Level Gander Center
Wed 02:30:11 AM 52.6667 -61.8333 37° Northeast 590 679 33,000  Level Gander Center
Wed 02:31:11 AM 52.7833 -61.6667 41° Northeast 590 679 33,000  Level Gander Center
Wed 02:32:11 AM 52.9167 -61.5000 37° Northeast 590 679 33,000  Level Gander Center
Wed 02:33:11 AM 53.0333 -61.3167 43° Northeast 590 679 33,000  Level Gander Center
Wed 02:34:11 AM 53.1500 -61.1167 46° Northeast 590 679 33,000  Level Gander Center
Wed 02:35:11 AM 53.2667 -60.9167 46° Northeast 590 679 33,000  Level Gander Center
Wed 02:36:11 AM 53.3833 -60.7500 40° Northeast 590 679 33,000  Level Gander Center
Wed 02:37:11 AM 53.5000 -60.5500 46° Northeast 590 679 33,000  Level Gander Center
Wed 02:38:11 AM 53.6167 -60.3500 45° Northeast 590 679 33,000  Level Gander Center
Wed 02:39:11 AM 53.7333 -60.1833 40° Northeast 590 679 33,000  Level Gander Center
Wed 02:40:11 AM 53.8500 -59.9500 50° Northeast 590 679 33,000  Level Gander Center
Wed 02:41:11 AM 53.9667 -59.7833 40° Northeast 590 679 33,000  Level Gander Center
Wed 02:42:11 AM 54.0833 -59.5667 47° Northeast 590 679 33,000  Level Gander Center
Wed 02:43:11 AM 54.2000 -59.3667 45° Northeast 590 679 33,000  Level Gander Center
Wed 02:44:11 AM 54.3167 -59.1833 42° Northeast 590 679 33,000  Level Gander Center
Wed 02:45:11 AM 54.4333 -58.9833 45° Northeast 590 679 33,000  Level Gander Center
Wed 02:45:53 AM 54.5000 -58.8333 53° Northeast 590 679 33,000  Level Gander Center
Wed 02:46:11 AM 54.5333 -58.7833 41° Northeast 590 679 33,000  Level Gander Center
Wed 02:47:11 AM 54.6500 -58.5667 47° Northeast 590 679 33,000  Level Gander Center
Wed 02:48:11 AM 54.7667 -58.3500 47° Northeast 590 679 33,000  Level Gander Center
Wed 02:49:11 AM 54.9000 -58.1500 41° Northeast 590 679 33,000  Level Gander Center
Wed 02:50:11 AM 54.9833 -57.9667 52° Northeast 590 679 33,000  Level Gander Center
Wed 02:51:11 AM 55.1000 -57.7500 47° Northeast 590 679 33,000  Level Gander Center
Wed 02:52:11 AM 55.2333 -57.5333 43° Northeast 590 679 33,000  Level Gander Center
Wed 02:53:11 AM 55.3167 -57.3167 56° Northeast 590 679 33,000  Level Gander Center
Wed 02:54:11 AM 55.4500 -57.1000 43° Northeast 590 679 33,000  Level Gander Center
Wed 02:55:11 AM 55.5333 -56.8833 56° Northeast 590 679 33,000  Level Gander Center
Wed 02:56:11 AM 55.6000 -56.6167 66° East 570 656 33,000  Level Gander Center
Wed 02:57:11 AM 55.6500 -56.3667 70° East 570 656 33,000  Level Gander Center
Wed 02:58:11 AM 55.7167 -56.0833 67° East 570 656 33,000  Level Gander Center
Wed 02:59:11 AM 55.7667 -55.8500 69° East 570 656 33,000  Level Gander Center
Wed 03:00:11 AM 55.8333 -55.5667 67° East 580 667 33,000  Level Gander Center
Wed 03:01:11 AM 55.9000 -55.2833 67° East 580 667 33,000  Level Gander Center
Wed 03:02:11 AM 55.9500 -55.0500 69° East 580 667 33,000  Level Gander Center
Wed 03:03:11 AM 56.0000 -54.7667 72° East 590 679 33,000  Level Gander Center
Wed 03:03:53 AM 56.0500 -54.6167 59° Northeast 580 667 33,000  Level Gander Center
Wed 03:04:11 AM 56.0667 -54.5167 73° East 580 667 33,000  Level Gander Center
Wed 03:04:53 AM 56.1000 -54.3333 72° East 580 667 33,000  Level Gander Center
Wed 03:05:53 AM 56.1667 -54.0833 64° Northeast 580 667 33,000  Level Gander Center
Wed 03:06:11 AM 56.2000 -53.9833 59° Northeast 580 667 33,000  Level Gander Center
Wed 03:07:11 AM 56.2500 -53.7000 72° East 580 667 33,000  Level Gander Center
Wed 03:08:11 AM 56.3000 -53.4167 72° East 580 667 33,000  Level Gander Center
Wed 03:09:11 AM 56.3667 -53.1667 64° Northeast 580 667 33,000  Level Gander Center
Wed 03:10:11 AM 56.4167 -52.8833 72° East 580 667 33,000  Level Gander Center
Wed 03:11:11 AM 56.4833 -52.6000 67° East 580 667 33,000  Level Gander Center
Wed 03:12:11 AM 56.5167 -52.3333 77° East 580 667 33,000  Level Gander Center
Wed 03:12:53 AM 56.5667 -52.1833 59° Northeast 580 667 33,000  Level Gander Center
Wed 03:13:53 AM 56.6333 -51.8833 68° East 580 667 33,000 15 Level Gander Center
Wed 03:15:00 AM 56.6885 -51.6112 70° East  Level FlightAware Approximate
Wed 03:22:00 AM 57.0260 -49.8912 66° East  Level FlightAware Approximate
Wed 03:23:00 AM 57.0829 -49.6505 66° East  Level FlightAware Approximate
Wed 03:24:00 AM 57.1394 -49.4091 67° East  Level FlightAware Approximate
Wed 03:25:00 AM 57.1954 -49.1669 67° East  Level FlightAware Approximate
Wed 03:26:00 AM 57.2510 -48.9240 67° East  Level FlightAware Approximate
Wed 03:27:00 AM 57.3061 -48.6804 67° East  Level FlightAware Approximate
Wed 03:28:00 AM 57.3647 -48.4393 65° Northeast  Level FlightAware Approximate
Wed 03:29:00 AM 57.4238 -48.1982 65° Northeast  Level FlightAware Approximate
Wed 03:30:00 AM 57.4825 -47.9562 66° East  Level FlightAware Approximate
Wed 03:31:00 AM 57.5407 -47.7136 66° East  Level FlightAware Approximate
Wed 03:32:00 AM 57.5984 -47.4701 66° East  Level FlightAware Approximate
Wed 03:33:00 AM 57.6554 -47.2257 68° East  Level FlightAware Approximate
Wed 03:34:00 AM 57.7095 -46.9786 68° East  Level FlightAware Approximate
Wed 03:35:00 AM 57.7631 -46.7307 68° East  Level FlightAware Approximate
Wed 03:36:00 AM 57.8162 -46.4822 68° East  Level FlightAware Approximate
Wed 03:37:00 AM 57.8689 -46.2329 68° East  Level FlightAware Approximate
Wed 03:38:00 AM 57.9210 -45.9829 68° East  Level FlightAware Approximate
Wed 03:39:00 AM 57.9727 -45.7321 69° East  Level FlightAware Approximate
Wed 03:40:00 AM 58.0239 -45.4807 69° East  Level FlightAware Approximate
Wed 03:41:00 AM 58.0745 -45.2285 69° East  Level FlightAware Approximate
Wed 03:42:00 AM 58.1247 -44.9756 69° East  Level FlightAware Approximate
Wed 03:43:00 AM 58.1744 -44.7220 70° East  Level FlightAware Approximate
Wed 03:44:00 AM 58.2235 -44.4677 70° East  Level FlightAware Approximate
Wed 03:45:00 AM 58.2728 -44.2130 70° East  Level FlightAware Approximate
Wed 03:46:00 AM 58.3217 -43.9578 70° East  Level FlightAware Approximate
Wed 03:47:00 AM 58.3701 -43.7019 70° East  Level FlightAware Approximate
Wed 03:48:00 AM 58.4179 -43.4453 70° East  Level FlightAware Approximate
Wed 03:49:00 AM 58.4653 -43.1880 71° East  Level FlightAware Approximate
Wed 03:50:00 AM 58.5121 -42.9300 71° East  Level FlightAware Approximate
Wed 03:51:00 AM 58.5585 -42.6713 71° East  Level FlightAware Approximate
Wed 03:52:00 AM 58.6043 -42.4120 71° East  Level FlightAware Approximate
Wed 03:53:00 AM 58.6496 -42.1519 71° East  Level FlightAware Approximate
Wed 03:54:00 AM 58.6943 -41.8912 72° East  Level FlightAware Approximate
Wed 03:55:00 AM 58.7385 -41.6298 72° East  Level FlightAware Approximate
Wed 03:56:00 AM 58.7822 -41.3678 72° East  Level FlightAware Approximate
Wed 03:57:00 AM 58.8254 -41.1051 72° East  Level FlightAware Approximate
Wed 03:58:00 AM 58.8680 -40.8417 73° East  Level FlightAware Approximate
Wed 03:59:00 AM 58.9101 -40.5778 73° East  Level FlightAware Approximate
Wed 04:00:00 AM 58.9517 -40.3131 73° East  Level FlightAware Approximate
Wed 04:01:00 AM 58.9927 -40.0479 73° East  Level FlightAware Approximate
Wed 04:02:00 AM 59.0076 -39.7732 86° East  Level FlightAware Approximate
Wed 04:03:00 AM 59.0163 -39.4965 86° East  Level FlightAware Approximate
Wed 04:04:00 AM 59.0244 -39.2196 87° East  Level FlightAware Approximate
Wed 04:05:00 AM 59.0320 -38.9426 87° East  Level FlightAware Approximate
Wed 04:06:00 AM 59.0389 -38.6655 87° East  Level FlightAware Approximate
Wed 04:07:00 AM 59.0453 -38.3882 87° East  Level FlightAware Approximate
Wed 04:08:00 AM 59.0511 -38.1109 88° East  Level FlightAware Approximate
Wed 04:09:00 AM 59.0562 -37.8335 88° East  Level FlightAware Approximate
Wed 04:10:00 AM 59.0608 -37.5560 88° East  Level FlightAware Approximate
Wed 04:11:00 AM 59.0648 -37.2785 88° East  Level FlightAware Approximate
Wed 04:12:00 AM 59.0690 -37.0009 88° East  Level FlightAware Approximate
Wed 04:13:00 AM 59.0734 -36.7233 88° East  Level FlightAware Approximate
Wed 04:14:00 AM 59.0773 -36.4456 88° East  Level FlightAware Approximate
Wed 04:15:00 AM 59.0806 -36.1679 89° East  Level FlightAware Approximate
Wed 04:16:00 AM 59.0832 -35.8901 89° East  Level FlightAware Approximate
Wed 04:17:00 AM 59.0853 -35.6123 89° East  Level FlightAware Approximate
Wed 04:18:00 AM 59.0868 -35.3344 89° East  Level FlightAware Approximate
Wed 04:19:00 AM 59.0877 -35.0566 90° East  Level FlightAware Approximate
Wed 04:20:00 AM 59.0880 -34.7787 90° East  Level FlightAware Approximate
Wed 04:21:00 AM 59.0877 -34.5008 90° East  Level FlightAware Approximate
Wed 04:22:00 AM 59.0868 -34.2230 90° East  Level FlightAware Approximate
Wed 04:23:00 AM 59.0853 -33.9451 90° East  Level FlightAware Approximate
Wed 04:24:00 AM 59.0833 -33.6673 91° East  Level FlightAware Approximate
Wed 04:25:00 AM 59.0806 -33.3895 91° East  Level FlightAware Approximate
Wed 04:26:00 AM 59.0773 -33.1118 91° East  Level FlightAware Approximate
Wed 04:27:00 AM 59.0735 -32.8341 91° East  Level FlightAware Approximate
Wed 04:28:00 AM 59.0690 -32.5565 92° East  Level FlightAware Approximate
Wed 04:29:00 AM 59.0640 -32.2790 92° East  Level FlightAware Approximate
Wed 04:30:00 AM 59.0583 -32.0016 92° East  Level FlightAware Approximate
Wed 04:31:00 AM 59.0521 -31.7242 92° East  Level FlightAware Approximate
Wed 04:32:00 AM 59.0453 -31.4470 93° East  Level FlightAware Approximate
Wed 04:33:00 AM 59.0379 -31.1699 93° East  Level FlightAware Approximate
Wed 04:34:00 AM 59.0299 -30.8929 93° East  Level FlightAware Approximate
Wed 04:35:00 AM 59.0213 -30.6160 93° East  Level FlightAware Approximate
Wed 04:36:00 AM 59.0121 -30.3393 94° East  Level FlightAware Approximate
Wed 04:37:00 AM 59.0023 -30.0627 94° East  Level FlightAware Approximate
Wed 04:38:00 AM 58.9683 -29.7948 107° East  Level FlightAware Approximate
Wed 04:39:00 AM 58.9267 -29.5301 107° East  Level FlightAware Approximate
Wed 04:40:00 AM 58.8847 -29.2659 107° East  Level FlightAware Approximate
Wed 04:41:00 AM 58.8420 -29.0025 107° East  Level FlightAware Approximate
Wed 04:42:00 AM 58.7989 -28.7396 107° East  Level FlightAware Approximate
Wed 04:43:00 AM 58.7552 -28.4774 108° East  Level FlightAware Approximate
Wed 04:44:00 AM 58.7110 -28.2159 108° East  Level FlightAware Approximate
Wed 04:45:00 AM 58.6663 -27.9551 108° East  Level FlightAware Approximate
Wed 04:46:00 AM 58.6210 -27.6949 108° East  Level FlightAware Approximate
Wed 04:47:00 AM 58.5752 -27.4354 109° East  Level FlightAware Approximate
Wed 04:48:00 AM 58.5289 -27.1766 109° East  Level FlightAware Approximate
Wed 04:49:00 AM 58.4826 -26.9182 109° East  Level FlightAware Approximate
Wed 04:50:00 AM 58.4364 -26.6600 109° East  Level FlightAware Approximate
Wed 04:51:00 AM 58.3897 -26.4024 109° East  Level FlightAware Approximate
Wed 04:52:00 AM 58.3424 -26.1456 109° East  Level FlightAware Approximate
Wed 04:53:00 AM 58.2947 -25.8894 109° East  Level FlightAware Approximate
Wed 04:54:00 AM 58.2465 -25.6339 110° East  Level FlightAware Approximate
Wed 04:55:00 AM 58.1977 -25.3792 110° East  Level FlightAware Approximate
Wed 04:56:00 AM 58.1485 -25.1251 110° East  Level FlightAware Approximate
Wed 04:57:00 AM 58.0987 -24.8717 110° East  Level FlightAware Approximate
Wed 04:58:00 AM 58.0485 -24.6191 111° Southeast  Level FlightAware Approximate
Wed 04:59:00 AM 57.9977 -24.3672 111° Southeast  Level FlightAware Approximate
Wed 05:00:00 AM 57.9464 -24.1160 111° Southeast  Level FlightAware Approximate
Wed 05:01:00 AM 57.8940 -23.8659 111° Southeast  Level FlightAware Approximate
Wed 05:02:00 AM 57.8412 -23.6166 112° Southeast  Level FlightAware Approximate
Wed 05:03:00 AM 57.7879 -23.3680 112° Southeast  Level FlightAware Approximate
Wed 05:04:00 AM 57.7341 -23.1201 112° Southeast  Level FlightAware Approximate
Wed 05:05:00 AM 57.6798 -22.8730 112° Southeast  Level FlightAware Approximate
Wed 05:06:00 AM 57.6250 -22.6267 112° Southeast  Level FlightAware Approximate
Wed 05:07:00 AM 57.5697 -22.3810 113° Southeast  Level FlightAware Approximate
Wed 05:08:00 AM 57.5140 -22.1362 113° Southeast  Level FlightAware Approximate
Wed 05:09:00 AM 57.4578 -21.8920 113° Southeast  Level FlightAware Approximate
Wed 05:10:00 AM 57.4011 -21.6486 113° Southeast  Level FlightAware Approximate
Wed 05:11:00 AM 57.3440 -21.4060 113° Southeast  Level FlightAware Approximate
Wed 05:12:00 AM 57.2864 -21.1642 114° Southeast  Level FlightAware Approximate
Wed 05:13:00 AM 57.2283 -20.9230 114° Southeast  Level FlightAware Approximate
Wed 05:14:00 AM 57.1698 -20.6827 114° Southeast  Level FlightAware Approximate
Wed 05:15:00 AM 57.1108 -20.4431 114° Southeast  Level FlightAware Approximate
Wed 05:16:00 AM 57.0514 -20.2043 115° Southeast  Level FlightAware Approximate
Wed 05:17:00 AM 56.9940 -19.9645 107° East  Level FlightAware Approximate
Wed 05:18:00 AM 56.9518 -19.7143 107° East  Level FlightAware Approximate
Wed 05:19:00 AM 56.9090 -19.4647 107° East  Level FlightAware Approximate
Wed 05:20:00 AM 56.8658 -19.2157 108° East  Level FlightAware Approximate
Wed 05:21:00 AM 56.8220 -18.9672 108° East  Level FlightAware Approximate
Wed 05:22:00 AM 56.7778 -18.7194 108° East  Level FlightAware Approximate
Wed 05:23:00 AM 56.7330 -18.4721 108° East  Level FlightAware Approximate
Wed 05:24:00 AM 56.6878 -18.2254 108° East  Level FlightAware Approximate
Wed 05:25:00 AM 56.6421 -17.9793 109° East  Level FlightAware Approximate
Wed 05:25:58 AM 55.6110 -13.0740 109° East 564 649 35,000  Level FlightAware ADS-B
Wed 05:26:00 AM 56.5959 -17.7338 109° East  Level FlightAware Approximate
Wed 05:26:28 AM 55.5700 -12.9620 123° Southeast 561 646 35,000  Level FlightAware ADS-B
Wed 05:27:13 AM 55.5120 -12.8030 123° Southeast 557 641 35,000  Level FlightAware ADS-B
Wed 05:28:23 AM 55.4140 -12.5370 123° Southeast 555 639 35,000  Level FlightAware ADS-B
Wed 05:29:03 AM 55.3540 -12.3760 123° Southeast 552 635 35,000  Level FlightAware ADS-B
Wed 05:29:43 AM 55.2970 -12.2250 124° Southeast 550 633 35,000  Level FlightAware ADS-B
Wed 05:30:28 AM 55.2340 -12.0590 124° Southeast 549 632 35,000  Level FlightAware ADS-B
Wed 05:31:23 AM 55.1610 -11.8670 124° Southeast 550 633 35,000  Level FlightAware ADS-B
Wed 05:32:03 AM 55.1020 -11.7130 124° Southeast 546 628 35,000  Level FlightAware ADS-B
Wed 05:32:48 AM 55.0390 -11.5510 124° Southeast 534 615 35,000  Level FlightAware ADS-B
Wed 05:33:28 AM 54.9820 -11.4040 124° Southeast 532 612 35,000  Level FlightAware ADS-B
Wed 05:34:08 AM 54.9270 -11.2640 124° Southeast 533 613 35,000  Level FlightAware ADS-B
Wed 05:34:53 AM 54.8640 -11.1040 124° Southeast 535 616 35,000  Level FlightAware ADS-B
Wed 05:35:33 AM 54.8080 -10.9630 125° Southeast 534 615 35,000  Level FlightAware ADS-B
Wed 05:36:13 AM 54.7510 -10.8190 124° Southeast 533 613 35,000  Level FlightAware ADS-B
Wed 05:36:58 AM 54.6890 -10.6640 125° Southeast 527 606 35,000  Level FlightAware ADS-B
Wed 05:37:38 AM 54.6320 -10.5230 125° Southeast 535 616 35,000  Level FlightAware ADS-B
Wed 05:38:13 AM 54.5820 -10.3990 125° Southeast 532 612 35,000  Level FlightAware ADS-B
Wed 05:40:00 AM 54.5307 -9.9690 101° East  Level Estimated
Wed 05:41:00 AM 54.5013 -9.7284 102° East  Level Estimated
Wed 05:41:23 AM 54.3900 -9.7180 102° East 505 581 35,000  Level FlightAware ADS-B
Wed 05:42:13 AM 54.3530 -9.5270 108° East 507 583 35,000  Level FlightAware ADS-B
Wed 05:42:53 AM 54.3220 -9.3670 108° East 511 588 35,000  Level FlightAware ADS-B
Wed 05:43:38 AM 54.2870 -9.1940 109° East 514 592 35,000  Level FlightAware ADS-B
Wed 05:44:18 AM 54.2570 -9.0410 108° East 514 592 35,000 -1,636 Level FlightAware ADS-B
Wed 05:44:33 AM 54.2418 -8.9641 108° East 494 568 33,500 -2,727 Descending FlightAware UK
Wed 05:44:51 AM 54.2277 -8.8950 109° East 494 568 33,500 3,000 Level FlightAware UK
Wed 05:45:03 AM 54.2210 -8.8640 109° East 511 588 35,000  Climbing FlightAware ADS-B
Wed 05:45:21 AM 54.2046 -8.7805 109° East 492 566 33,500  Descending FlightAware UK
Wed 05:45:43 AM 54.1890 -8.7090 109° East 511 588 35,000  Climbing FlightAware ADS-B
Wed 05:46:03 AM 54.1718 -8.6199 109° East 496 571 33,500 -2,368 Descending FlightAware UK
Wed 05:46:21 AM 54.1578 -8.5513 109° East 498 573 33,500 4,500 Level FlightAware UK
Wed 05:46:23 AM 54.1580 -8.5530 109° East 508 585 35,000  Climbing FlightAware ADS-B
Wed 05:46:39 AM 54.1435 -8.4823 109° East 492 566 33,500 -2,647 Descending FlightAware UK
Wed 05:46:57 AM 54.1293 -8.4143 110° East 488 562 33,500 3,103 Level FlightAware UK
Wed 05:47:08 AM 54.1250 -8.3970 110° East 509 586 35,000  Climbing FlightAware ADS-B
Wed 05:47:27 AM 54.1057 -8.3009 110° East 496 571 33,500 -2,432 Descending FlightAware UK
Wed 05:47:45 AM 54.0915 -8.2328 110° East 494 568 33,500 4,286 Level FlightAware UK
Wed 05:47:48 AM 54.0930 -8.2440 110° East 508 585 35,000  Climbing FlightAware ADS-B
Wed 05:48:03 AM 54.0772 -8.1648 110° East 490 564 33,500 -2,727 Descending FlightAware UK
Wed 05:48:21 AM 54.0630 -8.0969 110° East 486 559 33,500 3,000 Level FlightAware UK
Wed 05:48:33 AM 54.0570 -8.0720 110° East 508 585 35,000  Climbing FlightAware ADS-B
Wed 05:48:51 AM 54.0392 -7.9839 110° East 496 571 33,500 -2,500 Descending FlightAware UK
Wed 05:49:09 AM 54.0247 -7.9162 110° East 496 571 33,500 4,091 Level FlightAware UK
Wed 05:49:13 AM 54.0240 -7.9150 110° East 507 583 35,000  Climbing FlightAware ADS-B
Wed 05:49:33 AM 54.0055 -7.8261 110° East 490 564 33,500 -2,368 Descending FlightAware UK
Wed 05:49:51 AM 53.9910 -7.7584 110° East 494 568 33,500 3,600 Level FlightAware UK
Wed 05:49:58 AM 53.9880 -7.7470 110° East 513 590 35,000  Climbing FlightAware ADS-B
Wed 05:50:15 AM 53.9716 -7.6679 110° East 496 571 33,500 -2,571 Descending FlightAware UK
Wed 05:50:33 AM 53.9570 -7.6000 110° East 494 568 33,500 3,913 Level FlightAware UK
Wed 05:50:38 AM 53.9550 -7.5940 110° East 513 590 35,000  Climbing FlightAware ADS-B
Wed 05:50:57 AM 53.9374 -7.5092 110° East 496 571 33,500  Descending FlightAware UK
Wed 05:51:13 AM 53.9270 -7.4610 110° East 514 592 35,000  Climbing FlightAware ADS-B
Wed 05:51:15 AM 53.9228 -7.4412 110° East 498 573 33,500 -4,500 Descending FlightAware UK
Wed 05:51:33 AM 53.9078 -7.3731 110° East 496 571 33,500  Level FlightAware UK
Wed 05:51:51 AM 53.8929 -7.3054 110° East 494 568 33,500 3,600 Level FlightAware UK
Wed 05:51:58 AM 53.8930 -7.3070 110° East 512 589 35,000  Climbing FlightAware ADS-B
Wed 05:52:16 AM 53.8729 -7.2144 110° East 500 575 33,500 -2,500 Descending FlightAware UK
Wed 05:52:34 AM 53.8581 -7.1468 110° East 500 575 33,500 3,333 Level FlightAware UK
Wed 05:52:43 AM 53.8520 -7.1210 110° East 510 587 35,000  Climbing FlightAware ADS-B
Wed 05:52:58 AM 53.8381 -7.0570 110° East 496 571 33,500 -2,727 Descending FlightAware UK
Wed 05:53:16 AM 53.8233 -6.9900 110° East 498 573 33,500 3,000 Level FlightAware UK
Wed 05:53:28 AM 53.8160 -6.9560 110° East 508 585 35,000  Climbing FlightAware ADS-B
Wed 05:53:46 AM 53.7986 -6.8787 110° East 498 573 33,500 -2,500 Descending FlightAware UK
Wed 05:54:04 AM 53.7837 -6.8125 111° Southeast 496 571 33,500 4,091 Level FlightAware UK
Wed 05:54:08 AM 53.7830 -6.8090 111° Southeast 506 582 35,000  Climbing FlightAware ADS-B
Wed 05:54:28 AM 53.7638 -6.7242 111° Southeast 494 568 33,500 -2,368 Descending FlightAware UK
Wed 05:54:46 AM 53.7488 -6.6580 111° Southeast 494 568 33,500 4,500 Level FlightAware UK
Wed 05:54:48 AM 53.7490 -6.6600 111° Southeast 506 582 35,000  Climbing FlightAware ADS-B
Wed 05:55:04 AM 53.7338 -6.5917 111° Southeast 496 571 33,500 -2,647 Descending FlightAware UK
Wed 05:55:22 AM 53.7188 -6.5255 111° Southeast 494 568 33,500 3,103 Level FlightAware UK
Wed 05:55:33 AM 53.7110 -6.4910 111° Southeast 508 585 35,000  Climbing FlightAware ADS-B
Wed 05:55:52 AM 53.6938 -6.4147 111° Southeast 496 571 33,500 -2,432 Descending FlightAware UK
Wed 05:56:10 AM 53.6785 -6.3482 111° Southeast 506 582 33,500 4,286 Level FlightAware UK
Wed 05:56:13 AM 53.6780 -6.3470 111° Southeast 509 586 35,000  Climbing FlightAware ADS-B
Wed 05:56:40 AM 53.6530 -6.2376 111° Southeast 494 568 33,500  Descending FlightAware UK
Wed 05:56:53 AM 53.6440 -6.1990 111° Southeast 506 582 35,000  Climbing FlightAware ADS-B
Wed 05:57:10 AM 53.6275 -6.1275 111° Southeast 490 564 33,500 -2,571 Descending FlightAware UK
Wed 05:57:28 AM 53.6122 -6.0615 111° Southeast 500 575 33,500 3,214 Level FlightAware UK
Wed 05:57:38 AM 53.6050 -6.0290 111° Southeast 509 586 35,000  Climbing FlightAware ADS-B
Wed 05:57:58 AM 53.5864 -5.9506 111° Southeast 500 575 33,500 -2,368 Descending FlightAware UK
Wed 05:58:16 AM 53.5710 -5.8844 111° Southeast 498 573 33,500 3,600 Level FlightAware UK
Wed 05:58:23 AM 53.5670 -5.8680 111° Southeast 507 583 35,000 1,915 Climbing FlightAware ADS-B
Wed 05:59:03 AM 53.5340 -5.7290 112° Southeast 507 583 35,000 -1,525 Level FlightAware ADS-B
Wed 05:59:22 AM 53.5141 -5.6426 112° Southeast 496 571 33,500  Descending FlightAware UK
Wed 05:59:43 AM 53.5040 -5.5790 112° Southeast 506 582 35,000  Climbing FlightAware ADS-B
Wed 06:00:10 AM 53.4912 -5.4586 112° Southeast 498 573 33,500  Descending FlightAware UK
Wed 06:00:28 AM 53.4890 -5.3950 112° Southeast 505 581 35,000  Climbing FlightAware ADS-B
Wed 06:00:46 AM 53.4878 -5.3182 112° Southeast 498 573 33,500  Descending FlightAware UK
Wed 06:01:03 AM 53.4860 -5.2620 92° East 505 581 35,000  Climbing FlightAware ADS-B
Wed 06:01:04 AM 53.4861 -5.2471 92° East 496 571 33,500 -4,737 Descending FlightAware UK
Wed 06:01:22 AM 53.4844 -5.1768 92° East 496 571 33,500  Level FlightAware UK
Wed 06:01:40 AM 53.4829 -5.1065 92° East 498 573 33,500 2,903 Level FlightAware UK
Wed 06:01:53 AM 53.4820 -5.0670 92° East 506 582 35,000  Climbing FlightAware ADS-B
Wed 06:02:10 AM 53.4803 -4.9890 92° East 496 571 33,500 -2,571 Descending FlightAware UK
Wed 06:02:28 AM 53.4786 -4.9185 92° East 498 573 33,500 3,913 Level FlightAware UK
Wed 06:02:33 AM 53.4780 -4.9090 92° East 508 585 35,000 2,000 Climbing FlightAware ADS-B
Wed 06:03:13 AM 53.4740 -4.7530 92° East 508 585 35,000 -1,475 Level FlightAware ADS-B
Wed 06:03:34 AM 53.4702 -4.6584 92° East 500 575 33,500 -2,308 Descending FlightAware UK
Wed 06:03:52 AM 53.4673 -4.5882 94° East 498 573 33,500 3,750 Level FlightAware UK
Wed 06:03:58 AM 53.4670 -4.5720 94° East 506 582 35,000  Climbing FlightAware ADS-B
Wed 06:04:16 AM 53.4636 -4.4944 94° East 498 573 33,500 -2,500 Descending FlightAware UK
Wed 06:04:34 AM 53.4608 -4.4249 94° East 498 573 33,500 4,091 Level FlightAware UK
Wed 06:04:38 AM 53.4610 -4.4150 94° East 506 582 35,000  Climbing FlightAware ADS-B
Wed 06:04:58 AM 53.4571 -4.3305 94° East 500 575 33,500 -2,368 Descending FlightAware UK
Wed 06:05:16 AM 53.4544 -4.2604 94° East 498 573 33,500 3,600 Level FlightAware UK
Wed 06:05:23 AM 53.4540 -4.2570 94° East 505 581 35,000  Climbing FlightAware ADS-B
Wed 06:05:40 AM 53.4507 -4.1669 94° East 502 578 33,500 -2,571 Descending FlightAware UK
Wed 06:05:58 AM 53.4478 -4.0968 94° East 500 575 33,500 3,913 Level FlightAware UK
Wed 06:06:03 AM 53.4480 -4.0920 94° East 503 579 35,000  Climbing FlightAware ADS-B
Wed 06:06:28 AM 53.4429 -3.9806 94° East 498 573 33,500  Descending FlightAware UK
Wed 06:06:38 AM 53.4420 -3.9490 94° East 502 578 35,000  Climbing FlightAware ADS-B
Wed 06:07:10 AM 53.4359 -3.8175 94° East 498 573 33,500  Descending FlightAware UK
Wed 06:07:28 AM 53.4330 -3.7570 94° East 503 579 35,000  Climbing FlightAware ADS-B
Wed 06:07:52 AM 53.4288 -3.6547 94° East 500 575 33,500  Descending FlightAware UK
Wed 06:08:08 AM 53.4260 -3.6020 94° East 503 579 35,000  Climbing FlightAware ADS-B
Wed 06:08:23 AM 53.4234 -3.5375 94° East 500 575 33,500 -2,308 Descending FlightAware UK
Wed 06:08:47 AM 53.4189 -3.4445 95° East 500 575 33,500 3,000 Level FlightAware UK
Wed 06:08:53 AM 53.4180 -3.4310 95° East 502 578 35,000  Climbing FlightAware ADS-B
Wed 06:09:11 AM 53.4145 -3.3516 95° East 498 573 33,500 -2,500 Descending FlightAware UK
Wed 06:09:29 AM 53.4112 -3.2821 95° East 498 573 33,500 4,091 Level FlightAware UK
Wed 06:09:33 AM 53.4110 -3.2760 95° East 501 577 35,000 3,750 Climbing FlightAware ADS-B
Wed 06:09:53 AM 53.4066 -3.1910 95° East 503 579 35,000 -2,368 Level FlightAware ADS-B
Wed 06:10:11 AM 53.4032 -3.1198 95° East 498 573 33,500  Descending FlightAware UK
Wed 06:10:28 AM 53.3997 -3.0539 95° East 504 580 35,000  Climbing FlightAware ADS-B
Wed 06:10:47 AM 53.3960 -2.9795 95° East 500 575 33,500  Descending FlightAware UK
Wed 06:10:58 AM 53.3940 -2.9420 95° East 503 579 35,000 6,429 Climbing FlightAware ADS-B
Wed 06:11:01 AM 53.3931 -2.9253 95° East 504 580 35,000 -4,737 Level FlightAware ADS-B
Wed 06:11:17 AM 53.3899 -2.8624 95° East 500 575 33,500  Descending FlightAware UK
Wed 06:11:33 AM 53.3867 -2.8014 95° East 504 580 35,000  Climbing FlightAware ADS-B
Wed 06:11:53 AM 53.3826 -2.7230 95° East 500 575 33,500  Descending FlightAware UK
Wed 06:12:07 AM 53.3798 -2.6707 95° East 503 579 35,000  Climbing FlightAware ADS-B
Wed 06:12:23 AM 53.3765 -2.6070 95° East 498 573 33,500  Descending FlightAware UK
Wed 06:12:39 AM 53.3730 -2.5471 95° East 503 579 35,000 1,875 Climbing FlightAware ADS-B
Wed 06:13:11 AM 53.3663 -2.4250 95° East 503 579 35,000 -1,800 Level FlightAware ADS-B
Wed 06:13:29 AM 53.3621 -2.3515 95° East 498 573 33,500  Descending FlightAware UK
Wed 06:13:43 AM 53.3600 -2.3120 95° East 502 578 35,000  Climbing FlightAware ADS-B
Wed 06:13:59 AM 53.3555 -2.2360 95° East 500 575 33,500  Descending FlightAware UK
Wed 06:14:28 AM 53.3460 -2.1320 95° East 499 574 35,000 2,813 Climbing FlightAware ADS-B
Wed 06:14:31 AM 53.3443 -2.1149 99° East 502 578 35,000  Level FlightAware ADS-B
Wed 06:14:41 AM 53.3403 -2.0778 100° East 500 575 35,000 -2,647 Level FlightAware ADS-B
Wed 06:15:05 AM 53.3304 -1.9854 100° East 498 573 33,500  Descending FlightAware UK
Wed 06:15:12 AM 53.3280 -1.9608 100° East 500 575 35,000 2,093 Climbing FlightAware ADS-B
Wed 06:15:48 AM 53.3142 -1.8262 100° East 501 577 35,000  Level FlightAware ADS-B
Wed 06:16:18 AM 53.3025 -1.7098 99° East 502 578 35,000  Level FlightAware ADS-B
Wed 06:16:51 AM 53.2901 -1.5854 99° East 502 578 35,000 -1,875 Level FlightAware ADS-B
Wed 06:17:06 AM 53.2840 -1.5261 99° East 496 571 33,500 -2,727 Descending FlightAware UK
Wed 06:17:24 AM 53.2771 -1.4574 100° East 498 573 33,500 2,093 Level FlightAware UK
Wed 06:17:49 AM 53.2675 -1.3617 100° East 503 579 35,000 1,579 Climbing FlightAware ADS-B
Wed 06:18:21 AM 53.2549 -1.2395 100° East 503 579 35,000 -1,698 Level FlightAware ADS-B
Wed 06:18:42 AM 53.2464 -1.1587 100° East 498 573 33,500  Descending FlightAware UK
Wed 06:18:53 AM 53.2425 -1.1195 100° East 504 580 35,000 2,195 Climbing FlightAware ADS-B
Wed 06:19:23 AM 53.2302 -1.0027 100° East 504 580 35,000 -1,837 Level FlightAware ADS-B
Wed 06:19:42 AM 53.2223 -0.9285 100° East 498 573 33,500  Descending FlightAware UK
Wed 06:20:03 AM 53.2150 -0.8590 100° East 504 580 35,000  Climbing FlightAware ADS-B
Wed 06:20:18 AM 53.2077 -0.7920 100° East 498 573 33,500 -2,727 Descending FlightAware UK
Wed 06:20:36 AM 53.2001 -0.7227 100° East 500 575 33,500 3,600 Level FlightAware UK
Wed 06:20:43 AM 53.1980 -0.7080 100° East 504 580 35,000 6,429 Climbing FlightAware ADS-B
Wed 06:20:50 AM 53.1945 -0.6710 99° East 504 580 35,000  Level FlightAware ADS-B
Wed 06:21:24 AM 53.1801 -0.5412 100° East 501 577 35,000 -1,731 Level FlightAware ADS-B
Wed 06:21:42 AM 53.1724 -0.4710 100° East 500 575 33,500  Descending FlightAware UK
Wed 06:22:08 AM 53.1620 -0.3800 100° East 499 574 35,000 2,727 Climbing FlightAware ADS-B
Wed 06:22:15 AM 53.1590 -0.3507 100° East 499 574 35,000 -3,913 Level FlightAware ADS-B
Wed 06:22:31 AM 53.1523 -0.2890 100° East 502 578 33,500  Descending FlightAware UK
Wed 06:22:47 AM 53.1453 -0.2296 100° East 498 573 35,000  Climbing FlightAware ADS-B
Wed 06:23:07 AM 53.1367 -0.1534 100° East 496 571 33,500  Descending FlightAware UK
Wed 06:23:20 AM 53.1310 -0.1046 100° East 497 572 35,000  Climbing FlightAware ADS-B
Wed 06:23:43 AM 53.1213 -0.0189 100° East 496 571 33,500  Descending FlightAware UK
Wed 06:23:53 AM 53.1170 0.0175 100° East 497 572 35,000 2,250 Climbing FlightAware ADS-B
Wed 06:24:23 AM 53.1038 0.1314 101° East 498 573 35,000 -1,800 Level FlightAware ADS-B
Wed 06:24:43 AM 53.0951 0.2056 101° East 498 573 33,500  Descending FlightAware UK
Wed 06:24:54 AM 53.0906 0.2443 101° East 496 571 35,000 2,143 Climbing FlightAware ADS-B
Wed 06:25:25 AM 53.0771 0.3593 101° East 496 571 35,000 -1,837 Level FlightAware ADS-B
Wed 06:25:43 AM 53.0686 0.4304 101° East 494 568 33,500  Descending FlightAware UK
Wed 06:25:59 AM 53.0616 0.4894 101° East 499 574 35,000  Climbing FlightAware ADS-B
Wed 06:26:19 AM 53.0524 0.5658 101° East 498 573 33,500  Descending FlightAware UK
Wed 06:26:36 AM 53.0447 0.6287 101° East 498 573 35,000  Climbing FlightAware ADS-B
Wed 06:26:55 AM 53.0360 0.7006 101° East 498 573 33,500  Descending FlightAware UK
Wed 06:27:12 AM 53.0286 0.7614 101° East 497 572 35,000  Climbing FlightAware ADS-B
Wed 06:27:31 AM 53.0196 0.8348 101° East 496 571 33,500  Descending FlightAware UK
Wed 06:27:42 AM 53.0149 0.8730 101° East 496 571 35,000  Climbing FlightAware ADS-B
Wed 06:28:01 AM 53.0058 0.9473 101° East 496 571 33,500  Descending FlightAware UK
Wed 06:28:13 AM 53.0007 0.9883 101° East 496 571 35,000  Climbing FlightAware ADS-B
Wed 06:28:31 AM 52.9922 1.0580 101° East 498 573 33,500  Descending FlightAware UK
Wed 06:28:43 AM 52.9867 1.0999 101° East 497 572 35,000  Climbing FlightAware ADS-B
Wed 06:29:01 AM 52.9774 1.1700 101° East 504 580 33,500  Descending FlightAware UK
Wed 06:29:14 AM 52.9721 1.2165 101° East 494 568 35,000 2,045 Climbing FlightAware ADS-B
Wed 06:29:45 AM 52.9579 1.3277 102° East 492 566 35,000 -1,875 Level FlightAware ADS-B
Wed 06:30:02 AM 52.9499 1.3924 102° East 496 571 33,500  Descending FlightAware UK
Wed 06:30:19 AM 52.9417 1.4544 102° East 493 567 35,000  Climbing FlightAware ADS-B
Wed 06:30:38 AM 52.9329 1.5246 102° East 494 568 33,500  Descending FlightAware UK
Wed 06:30:52 AM 52.9260 1.5761 102° East 494 568 35,000  Climbing FlightAware ADS-B
Wed 06:31:08 AM 52.9185 1.6349 102° East 496 571 33,500  Descending FlightAware UK
Wed 06:31:23 AM 52.9112 1.6904 102° East 494 568 35,000  Climbing FlightAware ADS-B
Wed 06:31:38 AM 52.9037 1.7463 102° East 504 580 33,500  Descending FlightAware UK
Wed 06:31:55 AM 52.8959 1.8070 102° East 488 562 35,000  Climbing FlightAware ADS-B
Wed 06:32:14 AM 52.8864 1.8782 102° East 498 573 33,500  Descending FlightAware UK
Wed 06:32:38 AM 52.8770 1.9510 102° East 483 556 35,000  Climbing FlightAware ADS-B
Wed 06:32:56 AM 52.8663 2.0296 102° East 492 566 33,500  Descending FlightAware UK
Wed 06:33:15 AM 52.8571 2.0971 102° East 483 556 35,000  Climbing FlightAware ADS-B
Wed 06:33:50 AM 52.8399 2.2243 102° East 488 562 33,500  Descending FlightAware UK
Wed 06:33:58 AM 52.8370 2.2450 102° East 488 562 35,000  Climbing FlightAware ADS-B
Wed 06:34:14 AM 52.8282 2.3114 102° East 492 566 33,500 -2,647 Descending FlightAware UK
Wed 06:34:32 AM 52.8193 2.3769 103° East 494 568 33,500 3,103 Level FlightAware UK
Wed 06:34:43 AM 52.8170 2.3950 103° East 491 565 35,000  Climbing FlightAware ADS-B
Wed 06:35:02 AM 52.8042 2.4869 103° East 496 571 33,500 -2,432 Descending FlightAware UK
Wed 06:35:20 AM 52.7951 2.5536 103° East 496 571 33,500 3,462 Level FlightAware UK
Wed 06:35:28 AM 52.7930 2.5680 103° East 490 564 35,000  Climbing FlightAware ADS-B
Wed 06:35:44 AM 52.7829 2.6402 103° East 496 571 33,500  Descending FlightAware UK
Wed 06:36:08 AM 52.7720 2.7190 103° East 488 562 35,000  Climbing FlightAware ADS-B
Wed 06:36:26 AM 52.7613 2.7932 103° East 494 568 33,500 -2,500 Descending FlightAware UK
Wed 06:36:44 AM 52.7520 2.8581 103° East 492 566 33,500  Level FlightAware UK
Wed 06:37:02 AM 52.7361 2.9175 114° Southeast 494 568 33,500 3,103 Level FlightAware UK
Wed 06:37:13 AM 52.7370 2.9160 114° Southeast 472 543 35,000 1,957 Climbing FlightAware ADS-B
Wed 06:37:48 AM 52.6950 3.0580 116° Southeast 478 550 35,000 -1,475 Level FlightAware ADS-B
Wed 06:38:14 AM 52.6684 3.1538 116° Southeast 492 566 33,500  Descending FlightAware UK
Wed 06:38:23 AM 52.6650 3.1670 116° Southeast 480 552 35,000  Climbing FlightAware ADS-B
Wed 06:38:56 AM 52.6312 3.2949 116° Southeast 496 571 33,500  Descending FlightAware UK
Wed 06:39:13 AM 52.6230 3.3270 116° Southeast 477 549 35,000  Climbing FlightAware ADS-B
Wed 06:39:32 AM 52.6002 3.4156 116° Southeast 492 566 33,500  Descending FlightAware UK
Wed 06:39:53 AM 52.5850 3.4620 116° Southeast 469 540 35,000  Climbing FlightAware ADS-B
Wed 06:40:08 AM 52.5612 3.5275 116° Southeast 500 575 33,500  Descending FlightAware UK
Wed 06:40:28 AM 52.5480 3.5640 116° Southeast 461 531 35,000  Climbing FlightAware ADS-B
Wed 06:41:02 AM 52.5025 3.6912 116° Southeast 490 564 33,500  Descending FlightAware UK
Wed 06:41:18 AM 52.4890 3.7290 116° Southeast 462 532 35,000  Climbing FlightAware ADS-B
Wed 06:41:38 AM 52.4638 3.8002 116° Southeast 490 564 33,500  Descending FlightAware UK
Wed 06:41:53 AM 52.4510 3.8380 116° Southeast 463 533 35,000  Climbing FlightAware ADS-B
Wed 06:42:20 AM 52.4187 3.9270 116° Southeast 490 564 33,500  Descending FlightAware UK
Wed 06:42:43 AM 52.3970 3.9880 116° Southeast 461 531 35,000  Climbing FlightAware ADS-B
Wed 06:43:14 AM 52.3604 4.0888 116° Southeast 492 566 33,500  Descending FlightAware UK
Wed 06:43:23 AM 52.3540 4.1090 116° Southeast 457 526 35,000 1,837 Climbing FlightAware ADS-B
Wed 06:44:03 AM 52.3120 4.2270 120° Southeast 456 525 35,000  Level FlightAware ADS-B
Wed 06:44:48 AM 52.2650 4.3590 120° Southeast 454 522 35,000 -1,385 Level FlightAware ADS-B
Wed 06:45:08 AM 52.2398 4.4278 120° Southeast 486 559 33,500  Descending FlightAware UK
Wed 06:45:28 AM 52.2240 4.4740 120° Southeast 454 522 35,000  Climbing FlightAware ADS-B
Wed 06:45:44 AM 52.2025 4.5342 120° Southeast 486 559 33,500 -2,571 Descending FlightAware UK
Wed 06:46:03 AM 52.1836 4.5880 120° Southeast 486 559 33,500 3,750 Level FlightAware UK
Wed 06:46:08 AM 52.1810 4.5950 120° Southeast 453 521 35,000 1,800 Climbing FlightAware ADS-B
Wed 06:46:53 AM 52.1320 4.7300 121° Southeast 452 520 35,000 -1,343 Level FlightAware ADS-B
Wed 06:47:15 AM 52.1079 4.7990 121° Southeast 486 559 33,500  Descending FlightAware UK
Wed 06:47:33 AM 52.0900 4.8430 121° Southeast 453 521 35,000 1,429 Climbing FlightAware ADS-B
Wed 06:48:18 AM 52.0450 4.9790 118° Southeast 460 529 35,000 -1,071 Level FlightAware ADS-B
Wed 06:48:57 AM 52.0065 5.1067 118° Southeast 482 555 33,500  Descending FlightAware UK
Wed 06:48:58 AM 52.0100 5.1020 118° Southeast 461 531 35,000  Climbing FlightAware ADS-B
Wed 06:49:27 AM 51.9798 5.2010 118° Southeast 482 555 33,500  Descending FlightAware UK
Wed 06:49:38 AM 51.9740 5.2230 118° Southeast 461 531 35,000 1,607 Climbing FlightAware ADS-B
Wed 06:50:23 AM 51.9320 5.3700 115° Southeast 466 536 35,000 -1,343 Level FlightAware ADS-B
Wed 06:50:45 AM 51.9086 5.4459 115° Southeast 484 557 33,500  Descending FlightAware UK
Wed 06:51:03 AM 51.8980 5.4920 115° Southeast 466 536 35,000  Climbing FlightAware ADS-B
Wed 06:51:39 AM 51.8629 5.6196 115° Southeast 482 555 33,500  Descending FlightAware UK
Wed 06:51:48 AM 51.8550 5.6380 115° Southeast 469 540 35,000  Climbing FlightAware ADS-B
Wed 06:52:03 AM 51.8411 5.6964 115° Southeast 482 555 33,500  Descending FlightAware UK
Wed 06:52:28 AM 51.8180 5.7520 115° Southeast 462 532 35,000  Climbing FlightAware ADS-B
Wed 06:52:57 AM 51.7665 5.8436 115° Southeast 482 555 33,500  Descending FlightAware UK
Wed 06:53:13 AM 51.7600 5.8870 115° Southeast 463 533 35,000 1,765 Climbing FlightAware ADS-B
Wed 06:53:48 AM 51.7160 5.9870 125° Southeast 464 534 35,000  Level FlightAware ADS-B
Wed 06:54:33 AM 51.6580 6.1150 126° Southeast 463 533 35,000  Level FlightAware ADS-B
Wed 06:55:18 AM 51.6040 6.2320 127° Southeast 464 534 35,000  Level FlightAware ADS-B
Wed 06:55:58 AM 51.5530 6.3440 126° Southeast 465 535 35,000  Level FlightAware ADS-B
Wed 06:56:38 AM 51.5040 6.4490 127° Southeast 465 535 35,000  Level FlightAware ADS-B
Wed 06:57:23 AM 51.4400 6.5850 127° Southeast 463 533 35,000  Level FlightAware ADS-B
Wed 06:58:03 AM 51.3910 6.6900 127° Southeast 464 534 35,000  Level FlightAware ADS-B
Wed 06:58:48 AM 51.3320 6.8140 127° Southeast 466 536 35,000  Level FlightAware ADS-B
Wed 06:59:28 AM 51.2810 6.9210 127° Southeast 468 539 35,000  Level FlightAware ADS-B
Wed 07:00:03 AM 51.2350 7.0180 127° Southeast 468 539 35,000  Level FlightAware ADS-B
Wed 07:00:53 AM 51.1710 7.1520 127° Southeast 467 537 35,000  Level FlightAware ADS-B
Wed 07:01:38 AM 51.1130 7.2730 127° Southeast 466 536 35,000  Level FlightAware ADS-B
Wed 07:02:18 AM 51.0600 7.3800 128° Southeast 466 536 35,000  Level FlightAware ADS-B
Wed 07:02:58 AM 51.0080 7.4870 128° Southeast 467 537 35,000  Level FlightAware ADS-B
Wed 07:03:43 AM 50.9460 7.6150 128° Southeast 469 540 35,000  Level FlightAware ADS-B
Wed 07:04:18 AM 50.9050 7.6990 128° Southeast 469 540 35,000  Level FlightAware ADS-B
Wed 07:05:03 AM 50.8440 7.8230 128° Southeast 470 541 35,000  Level FlightAware ADS-B
Wed 07:05:48 AM 50.7830 7.9470 128° Southeast 470 541 35,000  Level FlightAware ADS-B
Wed 07:06:28 AM 50.7300 8.0530 128° Southeast 470 541 35,000  Level FlightAware ADS-B
Wed 07:07:08 AM 50.6750 8.1630 128° Southeast 469 540 35,000  Level FlightAware ADS-B
Wed 07:07:43 AM 50.6280 8.2560 129° Southeast 469 540 35,000  Level FlightAware ADS-B
Wed 07:08:33 AM 50.5570 8.3980 128° Southeast 471 542 35,000  Level FlightAware ADS-B
Wed 07:09:18 AM 50.4970 8.5170 128° Southeast 474 545 35,000  Level FlightAware ADS-B
Wed 07:09:58 AM 50.4410 8.6220 130° Southeast 474 545 35,000  Level FlightAware ADS-B
Wed 07:10:43 AM 50.3680 8.7360 135° Southeast 473 544 35,000  Level FlightAware ADS-B
Wed 07:11:23 AM 50.3040 8.8320 136° Southeast 476 548 35,000  Level FlightAware ADS-B
Wed 07:12:03 AM 50.2400 8.9270 136° Southeast 474 545 35,000  Level FlightAware ADS-B
Wed 07:12:48 AM 50.1710 9.0300 136° Southeast 473 544 35,000  Level FlightAware ADS-B
Wed 07:13:28 AM 50.1080 9.1230 137° Southeast 473 544 35,000  Level FlightAware ADS-B
Wed 07:14:08 AM 50.0460 9.2160 136° Southeast 474 545 35,000  Level FlightAware ADS-B
Wed 07:14:53 AM 49.9740 9.3220 137° Southeast 476 548 35,000  Level FlightAware ADS-B
Wed 07:15:33 AM 49.9070 9.4200 137° Southeast 478 550 35,000  Level FlightAware ADS-B
Wed 07:16:18 AM 49.8380 9.5210 137° Southeast 478 550 35,000 450 Level FlightAware ADS-B
Wed 07:16:53 AM 49.7820 9.6030 137° Southeast 478 550 35,600 1,200 Climbing FlightAware ADS-B
Wed 07:17:38 AM 49.7080 9.7100 137° Southeast 481 554 36,600 933 Climbing FlightAware ADS-B
Wed 07:18:23 AM 49.6340 9.8160 137° Southeast 479 551 37,000 282 Climbing FlightAware ADS-B
Wed 07:19:03 AM 49.5710 9.9070 137° Southeast 476 548 37,000  Level FlightAware ADS-B
Wed 07:19:48 AM 49.4970 10.0140 137° Southeast 474 545 37,000  Level FlightAware ADS-B
Wed 07:20:28 AM 49.4350 10.1090 135° Southeast 478 550 37,000  Level FlightAware ADS-B
Wed 07:21:08 AM 49.3940 10.2260 118° Southeast 484 557 37,000  Level FlightAware ADS-B
Wed 07:21:48 AM 49.3480 10.3470 120° Southeast 484 557 37,000  Level FlightAware ADS-B
Wed 07:22:33 AM 49.2980 10.4770 120° Southeast 481 554 37,000  Level FlightAware ADS-B
Wed 07:23:18 AM 49.2520 10.6050 119° Southeast 482 555 37,000  Level FlightAware ADS-B
Wed 07:23:58 AM 49.2080 10.7290 118° Southeast 484 557 37,000  Level FlightAware ADS-B
Wed 07:24:38 AM 49.1640 10.8500 119° Southeast 485 558 37,000  Level FlightAware ADS-B
Wed 07:25:18 AM 49.1200 10.9730 119° Southeast 486 559 37,000  Level FlightAware ADS-B
Wed 07:26:18 AM 49.0600 11.1400 119° Southeast 483 556 37,000  Level FlightAware ADS-B
Wed 07:26:58 AM 49.0150 11.2650 119° Southeast 484 557 37,000  Level FlightAware ADS-B
Wed 07:27:43 AM 48.9670 11.3970 119° Southeast 484 557 37,000  Level FlightAware ADS-B
Wed 07:28:23 AM 48.9240 11.5150 119° Southeast 486 559 37,000  Level FlightAware ADS-B
Wed 07:29:03 AM 48.8790 11.6400 119° Southeast 491 565 37,000  Level FlightAware ADS-B
Wed 07:29:48 AM 48.8300 11.7720 119° Southeast 491 565 37,000  Level FlightAware ADS-B
Wed 07:30:28 AM 48.7860 11.8930 119° Southeast 490 564 37,000  Level FlightAware ADS-B
Wed 07:31:13 AM 48.7370 12.0240 120° Southeast 492 566 37,000  Level FlightAware ADS-B
Wed 07:31:53 AM 48.6910 12.1480 119° Southeast 493 567 37,000  Level FlightAware ADS-B
Wed 07:32:33 AM 48.6470 12.2640 120° Southeast 493 567 37,000  Level FlightAware ADS-B
Wed 07:33:18 AM 48.5960 12.4010 119° Southeast 492 566 37,000  Level FlightAware ADS-B
Wed 07:33:58 AM 48.5500 12.5220 120° Southeast 493 567 37,000  Level FlightAware ADS-B
Wed 07:34:38 AM 48.5050 12.6390 120° Southeast 493 567 37,000  Level FlightAware ADS-B
Wed 07:35:23 AM 48.4530 12.7750 120° Southeast 494 568 37,000  Level FlightAware ADS-B
Wed 07:36:03 AM 48.4090 12.8900 120° Southeast 494 568 37,000  Level FlightAware ADS-B
Wed 07:36:48 AM 48.3680 13.0220 115° Southeast 494 568 37,000  Level FlightAware ADS-B
Wed 07:37:33 AM 48.3260 13.1610 114° Southeast 496 571 37,000  Level FlightAware ADS-B
Wed 07:38:08 AM 48.2910 13.2760 115° Southeast 494 568 37,000  Level FlightAware ADS-B
Wed 07:38:53 AM 48.2450 13.4340 114° Southeast 497 572 37,000  Level FlightAware ADS-B
Wed 07:39:38 AM 48.2030 13.5750 114° Southeast 494 568 37,000  Level FlightAware ADS-B
Wed 07:40:18 AM 48.1660 13.6980 114° Southeast 494 568 37,000  Level FlightAware ADS-B
Wed 07:41:03 AM 48.1220 13.8420 115° Southeast 494 568 37,000  Level FlightAware ADS-B
Wed 07:41:38 AM 48.0900 13.9480 114° Southeast 495 570 37,000  Level FlightAware ADS-B
Wed 07:42:28 AM 48.0430 14.1040 114° Southeast 497 572 37,000  Level FlightAware ADS-B
Wed 07:43:08 AM 48.0060 14.2250 115° Southeast 497 572 37,000  Level FlightAware ADS-B
Wed 07:43:48 AM 47.9660 14.3550 115° Southeast 497 572 37,000  Level FlightAware ADS-B
Wed 07:44:33 AM 47.9240 14.4900 115° Southeast 497 572 37,000  Level FlightAware ADS-B
Wed 07:45:13 AM 47.8870 14.6100 115° Southeast 495 570 37,000  Level FlightAware ADS-B
Wed 07:45:58 AM 47.8420 14.7550 115° Southeast 494 568 37,000  Level FlightAware ADS-B
Wed 07:46:38 AM 47.8020 14.8800 115° Southeast 499 574 37,000  Level FlightAware ADS-B
Wed 07:47:18 AM 47.7630 15.0050 115° Southeast 501 577 37,000  Level FlightAware ADS-B
Wed 07:48:03 AM 47.7200 15.1420 115° Southeast 498 573 37,000  Level FlightAware ADS-B
Wed 07:48:43 AM 47.6800 15.2650 116° Southeast 498 573 37,000  Level FlightAware ADS-B
Wed 07:49:28 AM 47.6370 15.3990 115° Southeast 500 575 37,000  Level FlightAware ADS-B
Wed 07:50:08 AM 47.5970 15.5240 115° Southeast 504 580 37,000  Level FlightAware ADS-B
Wed 07:50:48 AM 47.5560 15.6520 115° Southeast 504 580 37,000  Level FlightAware ADS-B
Wed 07:51:33 AM 47.5100 15.7940 116° Southeast 505 581 37,000  Level FlightAware ADS-B
Wed 07:52:13 AM 47.4690 15.9200 116° Southeast 504 580 37,000  Level FlightAware ADS-B
Wed 07:52:53 AM 47.4290 16.0410 116° Southeast 505 581 37,000  Level FlightAware ADS-B
Wed 07:53:38 AM 47.3820 16.1820 116° Southeast 503 579 37,000  Level FlightAware ADS-B
Wed 07:54:18 AM 47.3430 16.3010 116° Southeast 504 580 37,000  Level FlightAware ADS-B
Wed 07:55:03 AM 47.2950 16.4390 117° Southeast 503 579 37,000  Level FlightAware ADS-B
Wed 07:55:43 AM 47.2410 16.5550 124° Southeast 501 577 37,000  Level FlightAware ADS-B
Wed 07:56:28 AM 47.1790 16.6720 128° Southeast 501 577 37,000  Level FlightAware ADS-B
Wed 07:57:08 AM 47.1230 16.7780 128° Southeast 502 578 37,000  Level FlightAware ADS-B
Wed 07:57:48 AM 47.0690 16.8780 128° Southeast 503 579 37,000  Level FlightAware ADS-B
Wed 07:58:28 AM 47.0070 16.9940 128° Southeast 503 579 37,000  Level FlightAware ADS-B
Wed 07:59:13 AM 46.9520 17.0970 128° Southeast 498 573 37,000  Level FlightAware ADS-B
Wed 07:59:53 AM 46.8900 17.2110 128° Southeast 498 573 37,000  Level FlightAware ADS-B
Wed 08:00:38 AM 46.8210 17.3390 128° Southeast 505 581 37,000  Level FlightAware ADS-B
Wed 08:01:18 AM 46.7620 17.4470 129° Southeast 505 581 37,000  Level FlightAware ADS-B
Wed 08:01:58 AM 46.7030 17.5550 129° Southeast 506 582 37,000  Level FlightAware ADS-B
Wed 08:02:43 AM 46.6370 17.6760 128° Southeast 505 581 37,000  Level FlightAware ADS-B
Wed 08:03:23 AM 46.5820 17.7750 129° Southeast 505 581 37,000  Level FlightAware ADS-B
Wed 08:04:08 AM 46.5120 17.9010 129° Southeast 503 579 37,000  Level FlightAware ADS-B
Wed 08:04:48 AM 46.4550 18.0040 129° Southeast 503 579 37,000  Level FlightAware ADS-B
Wed 08:05:43 AM 46.3810 18.1360 129° Southeast 499 574 37,000  Level FlightAware ADS-B
Wed 08:06:38 AM 46.3000 18.2820 129° Southeast 506 582 37,000  Level FlightAware ADS-B
Wed 08:07:18 AM 46.2430 18.3830 129° Southeast 506 582 37,000  Level FlightAware ADS-B
Wed 08:07:58 AM 46.1810 18.4920 129° Southeast 507 583 37,000  Level FlightAware ADS-B
Wed 08:08:58 AM 46.0950 18.6430 129° Southeast 506 582 37,000  Level FlightAware ADS-B
Wed 08:09:43 AM 46.0280 18.7610 129° Southeast 509 586 37,000  Level FlightAware ADS-B
Wed 08:10:23 AM 45.9670 18.8680 129° Southeast 508 585 37,000  Level FlightAware ADS-B
Wed 08:11:08 AM 45.9020 18.9860 128° Southeast 503 579 37,000  Level FlightAware ADS-B
Wed 08:11:48 AM 45.8450 19.0950 127° Southeast 511 588 37,000  Level FlightAware ADS-B
Wed 08:12:28 AM 45.7880 19.2030 127° Southeast 508 585 37,000  Level FlightAware ADS-B
Wed 08:13:08 AM 45.7300 19.3100 128° Southeast 509 586 37,000  Level FlightAware ADS-B
Wed 08:13:48 AM 45.6670 19.4260 128° Southeast 511 588 37,000  Level FlightAware ADS-B
Wed 08:14:38 AM 45.5930 19.5610 128° Southeast 510 587 37,000  Level FlightAware ADS-B
Wed 08:15:18 AM 45.5350 19.6660 128° Southeast 509 586 37,000  Level FlightAware ADS-B
Wed 08:16:03 AM 45.4690 19.7860 128° Southeast 516 594 37,000  Level FlightAware ADS-B
Wed 08:16:43 AM 45.4100 19.8930 128° Southeast 516 594 37,000  Level FlightAware ADS-B
Wed 08:17:23 AM 45.3510 19.9990 128° Southeast 516 594 37,000  Level FlightAware ADS-B
Wed 08:18:08 AM 45.2840 20.1210 128° Southeast 516 594 37,000  Level FlightAware ADS-B
Wed 08:18:48 AM 45.2260 20.2240 129° Southeast 517 595 37,000  Level FlightAware ADS-B
Wed 08:19:33 AM 45.1580 20.3460 128° Southeast 517 595 37,000  Level FlightAware ADS-B
Wed 08:20:13 AM 45.0990 20.4500 129° Southeast 518 596 37,000  Level FlightAware ADS-B
Wed 08:20:53 AM 45.0390 20.5570 128° Southeast 518 596 37,000  Level FlightAware ADS-B
Wed 08:21:38 AM 44.9710 20.6760 129° Southeast 517 595 37,000  Level FlightAware ADS-B
Wed 08:22:18 AM 44.9120 20.7810 128° Southeast 516 594 37,000  Level FlightAware ADS-B
Wed 08:23:03 AM 44.8430 20.9010 129° Southeast 514 592 37,000  Level FlightAware ADS-B
Wed 08:23:43 AM 44.7830 21.0050 129° Southeast 514 592 37,000  Level FlightAware ADS-B
Wed 08:24:28 AM 44.7170 21.1210 129° Southeast 514 592 37,000  Level FlightAware ADS-B
Wed 08:25:08 AM 44.6560 21.2250 129° Southeast 515 593 37,000  Level FlightAware ADS-B
Wed 08:25:48 AM 44.5970 21.3270 129° Southeast 516 594 37,000  Level FlightAware ADS-B
Wed 08:26:33 AM 44.5280 21.4460 129° Southeast 517 595 37,000  Level FlightAware ADS-B
Wed 08:27:13 AM 44.4670 21.5500 129° Southeast 518 596 37,000  Level FlightAware ADS-B
Wed 08:27:53 AM 44.4060 21.6540 129° Southeast 517 595 37,000  Level FlightAware ADS-B
Wed 08:28:38 AM 44.3390 21.7670 130° Southeast 519 597 37,000  Level FlightAware ADS-B
Wed 08:29:18 AM 44.2790 21.8690 129° Southeast 517 595 37,000  Level FlightAware ADS-B
Wed 08:30:03 AM 44.2090 21.9880 129° Southeast 516 594 37,000  Level FlightAware ADS-B
Wed 08:30:43 AM 44.1470 22.0910 130° Southeast 515 593 37,000  Level FlightAware ADS-B
Wed 08:31:23 AM 44.0870 22.1910 130° Southeast 516 594 37,000  Level FlightAware ADS-B
Wed 08:32:08 AM 44.0210 22.3060 129° Southeast 517 595 37,000  Level FlightAware ADS-B
Wed 08:32:48 AM 43.9700 22.4130 123° Southeast 515 593 37,000  Level FlightAware ADS-B
Wed 08:33:33 AM 43.9070 22.5430 124° Southeast 516 594 37,000  Level FlightAware ADS-B
Wed 08:34:13 AM 43.8550 22.6500 124° Southeast 516 594 37,000  Level FlightAware ADS-B
Wed 08:34:53 AM 43.8020 22.7630 123° Southeast 516 594 37,000  Level FlightAware ADS-B
Wed 08:35:38 AM 43.7440 22.8850 123° Southeast 515 593 37,000  Level FlightAware ADS-B
Wed 08:36:18 AM 43.6900 22.9960 124° Southeast 515 593 37,000  Level FlightAware ADS-B
Wed 08:37:03 AM 43.6420 23.0950 124° Southeast 513 590 37,000  Level FlightAware ADS-B
Wed 08:37:43 AM 43.5860 23.2120 123° Southeast 514 592 37,000  Level FlightAware ADS-B
Wed 08:38:23 AM 43.5310 23.3270 123° Southeast 516 594 37,000  Level FlightAware ADS-B
Wed 08:39:08 AM 43.4730 23.4460 124° Southeast 516 594 37,000  Level FlightAware ADS-B
Wed 08:39:48 AM 43.4200 23.5540 124° Southeast 517 595 37,000  Level FlightAware ADS-B
Wed 08:40:28 AM 43.3660 23.6640 124° Southeast 519 597 37,000  Level FlightAware ADS-B
Wed 08:41:13 AM 43.3050 23.7900 124° Southeast 520 598 37,000  Level FlightAware ADS-B
Wed 08:41:53 AM 43.2510 23.8970 125° Southeast 520 598 37,000  Level FlightAware ADS-B
Wed 08:42:38 AM 43.1900 24.0210 124° Southeast 520 598 37,000  Level FlightAware ADS-B
Wed 08:43:18 AM 43.1370 24.1280 124° Southeast 518 596 37,000  Level FlightAware ADS-B
Wed 08:43:58 AM 43.0830 24.2370 124° Southeast 516 594 37,000  Level FlightAware ADS-B
Wed 08:44:43 AM 43.0230 24.3560 125° Southeast 517 595 37,000  Level FlightAware ADS-B
Wed 08:45:28 AM 42.9620 24.4790 124° Southeast 517 595 37,000  Level FlightAware ADS-B
Wed 08:46:08 AM 42.9080 24.5860 125° Southeast 517 595 37,000  Level FlightAware ADS-B
Wed 08:46:48 AM 42.8530 24.6940 125° Southeast 518 596 37,000  Level FlightAware ADS-B
Wed 08:47:33 AM 42.7910 24.8150 125° Southeast 517 595 37,000  Level FlightAware ADS-B
Wed 08:48:13 AM 42.7380 24.9200 124° Southeast 517 595 37,000  Level FlightAware ADS-B
Wed 08:48:53 AM 42.6830 25.0280 125° Southeast 520 598 37,000  Level FlightAware ADS-B
Wed 08:49:38 AM 42.6220 25.1460 125° Southeast 518 596 37,000  Level FlightAware ADS-B
Wed 08:50:13 AM 42.5780 25.2300 125° Southeast 521 600 37,000  Level FlightAware ADS-B
Wed 08:51:08 AM 42.5010 25.3800 125° Southeast 521 600 37,000  Level FlightAware ADS-B
Wed 08:51:58 AM 42.4320 25.5120 125° Southeast 520 598 37,000  Level FlightAware ADS-B
Wed 08:52:38 AM 42.3750 25.6220 125° Southeast 517 595 37,000  Level FlightAware ADS-B
Wed 08:53:13 AM 42.3250 25.7160 126° Southeast 515 593 37,000  Level FlightAware ADS-B
Wed 08:54:13 AM 42.2440 25.8710 125° Southeast 515 593 37,000  Level FlightAware ADS-B
Wed 08:54:58 AM 42.1800 25.9920 125° Southeast 515 593 37,000  Level FlightAware ADS-B
Wed 08:55:38 AM 42.1230 26.1000 125° Southeast 517 595 37,000 -675 Level FlightAware ADS-B
Wed 08:56:18 AM 42.0730 26.1940 126° Southeast 509 586 36,100 -1,620 Descending FlightAware ADS-B
Wed 08:57:18 AM 41.9960 26.3380 126° Southeast 500 575 34,300 -1,771 Descending FlightAware ADS-B
Wed 08:58:03 AM 42.0240 26.2850 305° West 499 574 33,000 -918 Descending FlightAware ADS-B
Wed 08:58:43 AM 41.8840 26.5460 126° Southeast 502 578 33,000 -75 Level FlightAware ADS-B
Wed 08:59:23 AM 41.8240 26.6600 125° Southeast 501 577 32,900 -675 Descending FlightAware ADS-B
Wed 09:00:03 AM 41.7720 26.7610 125° Southeast 492 566 32,100 -2,682 Descending FlightAware ADS-B
Wed 09:00:48 AM 41.7090 26.8830 125° Southeast 507 583 29,100 -2,965 Descending FlightAware ADS-B
Wed 09:01:28 AM 41.6560 26.9860 125° Southeast 486 559 27,900 -1,875 Descending FlightAware ADS-B
Wed 09:02:08 AM 41.6090 27.0770 125° Southeast 473 544 26,600 -1,450 Descending FlightAware ADS-B
Wed 09:03:28 AM 41.5120 27.2610 125° Southeast 456 525 25,000 -738 Descending FlightAware ADS-B
Wed 09:04:18 AM 41.4480 27.3830 125° Southeast 460 529 25,000  Level FlightAware ADS-B
Wed 09:05:03 AM 41.3940 27.4830 126° Southeast 446 513 25,000 -918 Level FlightAware ADS-B
Wed 09:05:43 AM 41.3460 27.5710 126° Southeast 436 502 23,700 -2,000 Descending FlightAware ADS-B
Wed 09:06:18 AM 41.2870 27.6270 144° Southeast 429 494 22,500 -1,765 Descending FlightAware ADS-B
Wed 09:07:08 AM 41.1970 27.6730 159° South 438 504 21,200 -1,059 Descending FlightAware ADS-B
Wed 09:07:43 AM 41.1380 27.7260 146° Southeast 432 497 21,000 -1,091 Descending FlightAware ADS-B
Wed 09:08:03 AM 41.1240 27.7760 110° East 432 497 20,200 -1,600 Descending FlightAware ADS-B
Wed 09:08:43 AM 41.0800 27.8760 120° Southeast 429 494 19,400 -1,200 Descending FlightAware ADS-B
Wed 09:09:28 AM 41.0370 27.9760 120° Southeast 422 486 18,500 -1,553 Descending FlightAware ADS-B
Wed 09:10:08 AM 40.9980 28.0660 120° Southeast 414 476 17,200 -1,765 Descending FlightAware ADS-B
Wed 09:10:53 AM 40.9770 28.1730 105° East 408 470 16,000 -847 Descending FlightAware ADS-B
Wed 09:11:33 AM 40.9850 28.2720 84° East 379 436 16,000 -225 Level FlightAware ADS-B
Wed 09:12:13 AM 40.9920 28.3590 84° East 348 400 15,700 -635 Descending FlightAware ADS-B
Wed 09:12:58 AM 41.0000 28.4530 84° East 329 379 15,100 -988 Descending FlightAware ADS-B
Wed 09:13:38 AM 41.0070 28.5270 83° East 322 371 14,300 -1,271 Descending FlightAware ADS-B
Wed 09:14:23 AM 41.0190 28.6170 80° East 316 364 13,300 -1,271 Descending FlightAware ADS-B
Wed 09:15:03 AM 41.0310 28.6900 78° East 312 359 12,500 -1,275 Descending FlightAware ADS-B
Wed 09:15:43 AM 41.0580 28.7580 62° Northeast 303 349 11,600 -1,341 Descending FlightAware ADS-B
Wed 09:16:28 AM 41.0920 28.8300 58° Northeast 295 339 10,600 -1,341 Descending FlightAware ADS-B
Wed 09:17:08 AM 41.1200 28.8890 58° Northeast 290 334 9,700 -1,527 Descending FlightAware ADS-B
Wed 09:17:23 AM 41.1310 28.9140 60° Northeast 289 333 9,200 -1,200 Descending FlightAware ADS-B
Wed 09:17:48 AM 41.1480 28.9510 59° Northeast 266 306 8,900 -1,091 Descending FlightAware ADS-B
Wed 09:18:18 AM 41.1640 28.9850 58° Northeast 255 293 8,200 -1,700 Descending FlightAware ADS-B
Wed 09:18:48 AM 41.1840 29.0300 59° Northeast 254 292 7,200 -1,733 Descending FlightAware ADS-B
Wed 09:19:03 AM 41.1930 29.0500 59° Northeast 249 287 6,900 -1,500 Descending FlightAware ADS-B
Wed 09:19:28 AM 41.2070 29.0810 59° Northeast 239 275 6,200 -1,320 Descending FlightAware ADS-B
Wed 09:19:53 AM 41.2210 29.1110 58° Northeast 243 280 5,800 -1,080 Descending FlightAware ADS-B
Wed 09:20:18 AM 41.2380 29.1470 58° Northeast 236 272 5,300 -1,080 Descending FlightAware ADS-B
Wed 09:20:43 AM 41.2430 29.1810 79° East 242 278 4,900 -1,080 Descending FlightAware ADS-B
Wed 09:21:08 AM 41.2270 29.2100 126° Southeast 248 285 4,400 -1,200 Descending FlightAware ADS-B
Wed 09:21:48 AM 41.1820 29.2010 189° South 236 272 3,600 -738 Descending FlightAware ADS-B
Wed 09:22:13 AM 41.1600 29.1810 214° Southwest 236 272 3,600 -450 Level FlightAware ADS-B
Wed 09:23:08 AM 41.1160 29.1350 218° Southwest 233 268 3,000 -300 Descending FlightAware ADS-B
Wed 09:23:53 AM 41.0890 29.0780 238° Southwest 236 272 3,100  Climbing FlightAware ADS-B
Wed 09:24:23 AM 41.0700 29.0350 240° Southwest 232 267 3,000 -120 Descending FlightAware ADS-B
Wed 09:24:43 AM 41.0590 29.0120 238° Southwest 232 267 3,000 -327 Level FlightAware ADS-B
Wed 09:25:18 AM 41.0420 28.9760 238° Southwest 200 230 2,700 -667 Descending FlightAware ADS-B
Wed 09:25:28 AM 41.0370 28.9650 239° Southwest 197 227 2,500 -1,050 Descending FlightAware ADS-B
Wed 09:25:58 AM 41.0230 28.9350 238° Southwest 189 217 2,000 -1,100 Descending FlightAware ADS-B
Wed 09:26:28 AM 41.0100 28.9060 239° Southwest 189 217 1,400 -655 Descending FlightAware ADS-B
Wed 09:26:53 AM 40.9990 28.8830 238° Southwest 189 217 1,400  Level FlightAware ADS-B
Wed 09:29:00 AM 40.9769 28.8211 128° Southeast  Level Estimated
Wed 09:30:00 AM 40.9769 28.8211 128° Southeast  Level Estimated
Wed 09:31:00 AM 40.9769 28.8211 128° Southeast  Level Estimated
Wed 09:32:00 AM 40.9769 28.8211 128° Southeast  Level Estimated
Wed 09:33:00 AM 40.9769 28.8211 128° Southeast  Level Estimated
Wed 09:34:00 AM 40.9769 28.8211 128° Southeast  Level Estimated
Wed 09:35:00 AM 40.9769 28.8211 128° Southeast  Level Estimated
Wed 09:36:00 AM 40.9769 28.8211 128° Southeast  Level Estimated

Login

Don't have an account? Register now (free) for customized features, flight alerts, and more!